Terminal Aerodrome Forecast
Issued by NWS Memphis, TN

Home | Current Version | Previous Version | Text Only | Print | Product List | Glossary On
Versions: 1 2 3 4 5 6 7 8 9 10 11 12 13 14 15 16 17 18
000
FTUS44 KMEG 292047 AAB
TAFMKL
TAF AMD
KMKL 292047Z 2921/3018 30006KT P6SM VCTS BKN050CB BKN150
     FM300200 03003KT P6SM SCT040 SCT250
     FM301400 04008KT P6SM SCT250=

USA.gov is the U.S. government's official web portal to all federal, state and local government web resources and services.